createdAt,value
2023-12-28T00:00:11.779Z,8.22
2023-12-28T00:01:12.830Z,8.16
2023-12-28T00:02:12.729Z,8.19
2023-12-28T00:03:12.800Z,8.15
2023-12-28T00:04:12.784Z,8.11
2023-12-28T00:05:12.681Z,8.11
2023-12-28T00:06:12.714Z,8.08
2023-12-28T00:07:12.670Z,8.05
2023-12-28T00:08:12.670Z,8.07
2023-12-28T00:09:12.813Z,8.04
2023-12-28T00:10:12.618Z,8.08
2023-12-28T00:11:12.605Z,8.07
2023-12-28T00:12:13.245Z,8.02
2023-12-28T00:13:12.602Z,8.01
2023-12-28T00:14:12.559Z,8.01
2023-12-28T00:15:12.709Z,7.98
2023-12-28T00:16:12.534Z,8.00
2023-12-28T00:17:12.573Z,8.01
2023-12-28T00:18:12.648Z,8.00
2023-12-28T00:19:12.693Z,8.02
2023-12-28T00:20:14.226Z,8.04
2023-12-28T00:21:12.588Z,8.00
2023-12-28T00:22:12.507Z,7.95
2023-12-28T00:23:12.442Z,8.00
2023-12-28T00:24:12.510Z,8.00
2023-12-28T00:25:12.489Z,8.02
2023-12-28T00:26:12.501Z,8.12
2023-12-28T00:27:12.512Z,8.11
2023-12-28T00:28:12.470Z,8.10
2023-12-28T00:29:12.629Z,8.18
2023-12-28T00:30:12.665Z,8.18
2023-12-28T00:31:12.666Z,8.11
2023-12-28T00:32:12.426Z,8.10
2023-12-28T00:33:12.481Z,8.12
2023-12-28T00:34:12.635Z,8.12
2023-12-28T00:35:12.312Z,8.12
2023-12-28T00:36:12.323Z,8.16
2023-12-28T00:37:13.200Z,8.18
2023-12-28T00:38:12.305Z,8.15
2023-12-28T00:39:12.398Z,8.18
2023-12-28T00:40:12.229Z,8.22
2023-12-28T00:41:12.693Z,8.22
2023-12-28T00:42:12.248Z,8.23
2023-12-28T00:43:13.177Z,8.23
2023-12-28T00:44:12.172Z,8.26
2023-12-28T00:45:12.228Z,8.23
2023-12-28T00:46:12.166Z,8.26
2023-12-28T00:47:12.169Z,8.30
2023-12-28T00:48:12.509Z,8.38
2023-12-28T00:49:12.317Z,8.37
2023-12-28T00:50:12.815Z,8.41
2023-12-28T00:51:12.132Z,8.41
2023-12-28T00:52:12.081Z,8.48
2023-12-28T00:53:12.092Z,8.47
2023-12-28T00:54:12.112Z,8.48
2023-12-28T00:55:12.785Z,8.47
2023-12-28T00:56:12.654Z,8.50
2023-12-28T00:57:12.104Z,8.56
2023-12-28T00:58:11.993Z,8.58
2023-12-28T00:59:12.240Z,8.61
2023-12-28T01:00:12.368Z,8.61
2023-12-28T01:01:12.160Z,8.59
2023-12-28T01:02:12.107Z,8.58
2023-12-28T01:03:12.071Z,8.66
2023-12-28T01:04:12.016Z,8.68
2023-12-28T01:05:11.925Z,8.71
2023-12-28T01:06:12.000Z,8.77
2023-12-28T01:07:11.983Z,8.77
2023-12-28T01:08:11.887Z,8.79
2023-12-28T01:09:11.916Z,8.83
2023-12-28T01:10:11.875Z,8.83
2023-12-28T01:11:11.886Z,8.86
2023-12-28T01:12:11.903Z,8.94
2023-12-28T01:13:11.846Z,8.95
2023-12-28T01:14:11.805Z,9.01
2023-12-28T01:15:11.808Z,9.04
2023-12-28T01:16:11.765Z,9.04
2023-12-28T01:17:11.779Z,9.08
2023-12-28T01:18:11.946Z,9.15
2023-12-28T01:19:11.872Z,9.21
2023-12-28T01:20:11.790Z,9.24
2023-12-28T01:21:11.787Z,9.26
2023-12-28T01:22:11.699Z,9.24
2023-12-28T01:23:11.693Z,9.24
2023-12-28T01:24:11.713Z,9.31
2023-12-28T01:25:11.659Z,9.33
2023-12-28T01:26:11.648Z,9.35
2023-12-28T01:27:11.695Z,9.40
2023-12-28T01:28:11.631Z,9.36
2023-12-28T01:29:11.633Z,9.35
2023-12-28T01:30:11.784Z,9.39
2023-12-28T01:31:11.712Z,9.43
2023-12-28T01:32:11.569Z,9.48
2023-12-28T01:33:11.718Z,9.50
2023-12-28T01:34:11.632Z,9.50
2023-12-28T01:35:11.549Z,9.50
2023-12-28T01:36:11.570Z,9.58
2023-12-28T01:37:11.557Z,9.58
2023-12-28T01:38:11.532Z,9.60
2023-12-28T01:39:11.509Z,9.60
2023-12-28T01:40:11.495Z,9.65
2023-12-28T01:41:11.513Z,9.65
2023-12-28T01:42:11.481Z,9.71
2023-12-28T01:43:11.424Z,9.75
2023-12-28T01:44:11.501Z,9.87
2023-12-28T01:45:11.515Z,9.86
2023-12-28T01:46:11.399Z,9.86
2023-12-28T01:47:11.415Z,9.93
2023-12-28T01:48:11.508Z,9.87
2023-12-28T01:49:11.507Z,9.94
2023-12-28T01:50:11.354Z,9.96
2023-12-28T01:51:11.389Z,10.01
2023-12-28T01:52:11.378Z,9.96
2023-12-28T01:53:11.349Z,9.99
2023-12-28T01:54:11.352Z,9.99
2023-12-28T01:55:11.294Z,9.97
2023-12-28T01:56:11.266Z,10.01
2023-12-28T01:57:11.285Z,10.01
2023-12-28T01:58:11.279Z,9.99
2023-12-28T01:59:11.249Z,10.01
2023-12-28T02:00:11.252Z,10.01
2023-12-28T02:01:11.338Z,10.01
2023-12-28T02:02:11.195Z,10.02
2023-12-28T02:03:11.241Z,10.04
2023-12-28T02:04:11.303Z,9.97
2023-12-28T02:05:11.216Z,9.97
2023-12-28T02:06:11.305Z,10.05
2023-12-28T02:07:11.192Z,10.08
2023-12-28T02:08:11.129Z,10.07
2023-12-28T02:09:11.166Z,10.05
2023-12-28T02:10:11.116Z,10.04
2023-12-28T02:11:11.111Z,10.01
2023-12-28T02:12:11.103Z,10.01
2023-12-28T02:13:11.075Z,9.97
2023-12-28T02:14:11.039Z,9.96
2023-12-28T02:15:11.058Z,9.97
2023-12-28T02:16:11.032Z,10.02
2023-12-28T02:17:11.019Z,10.02
2023-12-28T02:18:11.106Z,10.02
2023-12-28T02:19:11.058Z,9.99
2023-12-28T02:20:11.035Z,9.96
2023-12-28T02:21:11.056Z,9.97
2023-12-28T02:22:10.953Z,10.02
2023-12-28T02:23:10.964Z,10.08
2023-12-28T02:24:11.003Z,10.07
2023-12-28T02:25:10.923Z,10.07
2023-12-28T02:26:10.890Z,10.07
2023-12-28T02:27:10.920Z,10.02
2023-12-28T02:28:10.917Z,9.99
2023-12-28T02:29:10.890Z,9.99
2023-12-28T02:30:10.936Z,10.12
2023-12-28T02:31:10.903Z,10.09
2023-12-28T02:32:10.829Z,10.09
2023-12-28T02:33:10.898Z,10.04
2023-12-28T02:34:10.944Z,10.05
2023-12-28T02:35:10.815Z,10.07
2023-12-28T02:36:10.787Z,10.05
2023-12-28T02:37:10.774Z,10.05
2023-12-28T02:38:10.769Z,10.08
2023-12-28T02:39:10.736Z,10.07
2023-12-28T02:40:10.733Z,10.09
2023-12-28T02:41:10.766Z,10.09
2023-12-28T02:42:10.698Z,10.12
2023-12-28T02:43:10.682Z,10.08
2023-12-28T02:44:10.670Z,10.07
2023-12-28T02:45:10.731Z,10.07
2023-12-28T02:46:10.651Z,10.05
2023-12-28T02:47:10.651Z,10.07
2023-12-28T02:48:10.753Z,10.09
2023-12-28T02:49:10.660Z,10.08
2023-12-28T02:50:10.603Z,10.08
2023-12-28T02:51:10.615Z,10.05
2023-12-28T02:52:10.576Z,10.01
2023-12-28T02:53:10.591Z,9.99
2023-12-28T02:54:10.555Z,10.02
2023-12-28T02:55:10.539Z,10.01
2023-12-28T02:56:10.535Z,10.02
2023-12-28T02:57:10.498Z,10.02
2023-12-28T02:58:10.499Z,9.99
2023-12-28T02:59:10.501Z,10.02
2023-12-28T03:00:10.513Z,10.01
2023-12-28T03:01:10.513Z,9.99
2023-12-28T03:02:10.450Z,10.02
2023-12-28T03:03:10.462Z,10.02
2023-12-28T03:04:10.477Z,9.99
2023-12-28T03:05:10.464Z,10.01
2023-12-28T03:06:10.416Z,10.04
2023-12-28T03:07:10.390Z,10.02
2023-12-28T03:08:10.397Z,10.01
2023-12-28T03:09:10.354Z,10.01
2023-12-28T03:10:12.148Z,9.99
2023-12-28T03:11:10.359Z,10.05
2023-12-28T03:12:10.314Z,10.01
2023-12-28T03:13:10.325Z,9.99
2023-12-28T03:14:10.300Z,10.02
2023-12-28T03:15:10.328Z,10.08
2023-12-28T03:16:10.274Z,10.07
2023-12-28T03:17:10.273Z,10.08
2023-12-28T03:18:10.460Z,10.07
2023-12-28T03:19:10.425Z,10.04
2023-12-28T03:20:10.327Z,10.09
2023-12-28T03:21:10.214Z,10.12
2023-12-28T03:22:10.200Z,10.07
2023-12-28T03:23:10.188Z,10.04
2023-12-28T03:24:10.205Z,10.07
2023-12-28T03:25:10.183Z,10.07
2023-12-28T03:26:10.144Z,10.02
2023-12-28T03:27:10.149Z,10.08
2023-12-28T03:28:10.115Z,10.07
2023-12-28T03:29:10.121Z,10.09
2023-12-28T03:30:10.182Z,10.09
2023-12-28T03:31:10.150Z,10.09
2023-12-28T03:32:10.072Z,10.11
2023-12-28T03:33:10.183Z,10.15
2023-12-28T03:34:10.186Z,10.11
2023-12-28T03:35:10.065Z,10.08
2023-12-28T03:36:10.023Z,10.08
2023-12-28T03:37:10.031Z,10.05
2023-12-28T03:38:09.986Z,10.07
2023-12-28T03:39:10.031Z,10.07
2023-12-28T03:40:09.970Z,10.11
2023-12-28T03:41:09.960Z,10.11
2023-12-28T03:42:09.941Z,10.11
2023-12-28T03:43:09.933Z,10.12
2023-12-28T03:44:09.921Z,10.22
2023-12-28T03:45:09.917Z,10.15
2023-12-28T03:46:09.897Z,10.14
2023-12-28T03:47:09.887Z,10.15
2023-12-28T03:48:09.945Z,10.20
2023-12-28T03:49:10.015Z,10.17
2023-12-28T03:50:09.864Z,10.22
2023-12-28T03:51:09.827Z,10.22
2023-12-28T03:52:09.924Z,10.22
2023-12-28T03:53:09.819Z,10.26
2023-12-28T03:54:09.797Z,10.27
2023-12-28T03:55:09.782Z,10.29
2023-12-28T03:56:09.780Z,10.30
2023-12-28T03:57:09.765Z,10.36
2023-12-28T03:58:09.761Z,10.34
2023-12-28T03:59:09.797Z,10.38
2023-12-28T04:00:09.751Z,10.40
2023-12-28T04:01:09.810Z,10.32
2023-12-28T04:02:09.708Z,10.33
2023-12-28T04:03:09.734Z,10.32
2023-12-28T04:04:09.869Z,10.26
2023-12-28T04:05:09.729Z,10.33
2023-12-28T04:06:09.707Z,10.38
2023-12-28T04:07:09.666Z,10.42
2023-12-28T04:08:09.633Z,10.36
2023-12-28T04:09:09.617Z,10.36
2023-12-28T04:10:09.670Z,10.34
2023-12-28T04:11:09.597Z,10.38
2023-12-28T04:12:09.579Z,10.40
2023-12-28T04:13:09.574Z,10.40
2023-12-28T04:14:09.573Z,10.42
2023-12-28T04:15:09.543Z,10.45
2023-12-28T04:16:09.531Z,10.45
2023-12-28T04:17:09.529Z,10.47
2023-12-28T04:18:09.599Z,10.47
2023-12-28T04:19:09.626Z,10.45
2023-12-28T04:20:09.484Z,10.47
2023-12-28T04:21:09.466Z,10.47
2023-12-28T04:22:09.459Z,10.48
2023-12-28T04:23:09.453Z,10.51
2023-12-28T04:24:09.430Z,10.48
2023-12-28T04:25:09.422Z,10.52
2023-12-28T04:26:09.412Z,10.51
2023-12-28T04:27:09.410Z,10.51
2023-12-28T04:28:09.380Z,10.78
2023-12-28T04:29:09.391Z,10.78
2023-12-28T04:30:09.371Z,10.63
2023-12-28T04:31:09.651Z,10.64
2023-12-28T04:32:09.320Z,10.63
2023-12-28T04:33:09.349Z,10.56
2023-12-28T04:34:09.343Z,10.53
2023-12-28T04:35:09.297Z,10.56
2023-12-28T04:36:09.286Z,10.56
2023-12-28T04:37:09.263Z,10.51
2023-12-28T04:38:09.269Z,10.53
2023-12-28T04:39:09.241Z,10.53
2023-12-28T04:40:09.262Z,10.55
2023-12-28T04:41:09.230Z,10.56
2023-12-28T04:42:09.225Z,10.56
2023-12-28T04:43:09.189Z,10.56
2023-12-28T04:44:09.184Z,10.56
2023-12-28T04:45:09.159Z,10.63
2023-12-28T04:46:09.153Z,10.64
2023-12-28T04:47:09.152Z,10.74
2023-12-28T04:48:09.267Z,10.71
2023-12-28T04:49:09.208Z,10.68
2023-12-28T04:50:09.112Z,10.68
2023-12-28T04:51:09.078Z,10.61
2023-12-28T04:52:09.068Z,10.68
2023-12-28T04:53:09.093Z,10.71
2023-12-28T04:54:09.060Z,10.74
2023-12-28T04:55:09.032Z,10.73
2023-12-28T04:56:09.050Z,10.71
2023-12-28T04:57:09.006Z,10.68
2023-12-28T04:58:09.044Z,10.68
2023-12-28T04:59:09.014Z,10.68
2023-12-28T05:00:09.004Z,10.70
2023-12-28T05:01:09.017Z,10.68
2023-12-28T05:02:08.949Z,10.81
2023-12-28T05:03:09.030Z,10.85
2023-12-28T05:04:09.082Z,10.86
2023-12-28T05:05:08.930Z,10.89
2023-12-28T05:06:08.944Z,10.89
2023-12-28T05:07:08.885Z,10.88
2023-12-28T05:08:08.886Z,10.89
2023-12-28T05:09:08.866Z,10.81
2023-12-28T05:10:08.871Z,10.81
2023-12-28T05:11:08.862Z,10.81
2023-12-28T05:12:08.819Z,10.78
2023-12-28T05:13:08.852Z,10.73
2023-12-28T05:14:10.779Z,10.73
2023-12-28T05:15:08.797Z,10.73
2023-12-28T05:16:08.782Z,10.74
2023-12-28T05:17:08.776Z,10.73
2023-12-28T05:18:08.961Z,10.79
2023-12-28T05:19:08.920Z,10.82
2023-12-28T05:20:08.746Z,10.78
2023-12-28T05:21:08.737Z,10.81
2023-12-28T05:22:08.687Z,10.84
2023-12-28T05:23:08.691Z,10.81
2023-12-28T05:24:08.682Z,10.85
2023-12-28T05:25:08.704Z,10.81
2023-12-28T05:26:08.650Z,10.79
2023-12-28T05:27:08.651Z,10.73
2023-12-28T05:28:08.678Z,10.76
2023-12-28T05:29:08.630Z,10.73
2023-12-28T05:30:08.720Z,10.71
2023-12-28T05:31:08.731Z,10.73
2023-12-28T05:32:08.617Z,10.73
2023-12-28T05:33:08.754Z,10.76
2023-12-28T05:34:08.683Z,10.74
2023-12-28T05:35:08.940Z,10.76
2023-12-28T05:36:11.539Z,10.85
2023-12-28T05:37:08.652Z,10.82
2023-12-28T05:38:08.586Z,10.81
2023-12-28T05:39:08.507Z,10.81
2023-12-28T05:40:08.473Z,10.81
2023-12-28T05:41:08.470Z,10.81
2023-12-28T05:42:08.452Z,10.82
2023-12-28T05:43:08.432Z,10.82
2023-12-28T05:44:08.440Z,10.78
2023-12-28T05:45:08.402Z,10.78
2023-12-28T05:46:08.394Z,10.74
2023-12-28T05:47:08.420Z,10.71
2023-12-28T05:48:08.588Z,10.73
2023-12-28T05:49:08.453Z,10.73
2023-12-28T05:50:08.371Z,10.71
2023-12-28T05:51:08.368Z,10.68
2023-12-28T05:52:08.349Z,10.68
2023-12-28T05:53:08.349Z,10.71
2023-12-28T05:54:09.642Z,10.70
2023-12-28T05:55:08.278Z,10.68
2023-12-28T05:56:08.272Z,10.68
2023-12-28T05:57:08.260Z,10.66
2023-12-28T05:58:08.318Z,10.63
2023-12-28T05:59:08.672Z,10.66
2023-12-28T06:00:08.233Z,10.64
2023-12-28T06:01:08.319Z,10.64
2023-12-28T06:02:08.195Z,10.64
2023-12-28T06:03:08.180Z,10.63
2023-12-28T06:04:08.286Z,10.64
2023-12-28T06:05:08.367Z,10.56
2023-12-28T06:06:08.144Z,10.59
2023-12-28T06:07:08.126Z,10.59
2023-12-28T06:08:08.121Z,10.59
2023-12-28T06:09:08.099Z,10.59
2023-12-28T06:10:08.100Z,10.60
2023-12-28T06:11:08.105Z,10.61
2023-12-28T06:12:08.071Z,10.63
2023-12-28T06:13:08.052Z,10.63
2023-12-28T06:14:08.049Z,10.68
2023-12-28T06:15:08.034Z,10.70
2023-12-28T06:16:08.134Z,10.81
2023-12-28T06:17:08.031Z,10.78
2023-12-28T06:18:08.119Z,10.74
2023-12-28T06:19:08.136Z,10.78
2023-12-28T06:20:08.091Z,10.74
2023-12-28T06:21:07.972Z,10.74
2023-12-28T06:22:07.949Z,10.73
2023-12-28T06:23:07.947Z,10.73
2023-12-28T06:24:07.925Z,10.70
2023-12-28T06:25:07.902Z,10.67
2023-12-28T06:26:07.896Z,10.64
2023-12-28T06:27:07.883Z,10.67
2023-12-28T06:28:07.926Z,10.64
2023-12-28T06:29:07.867Z,10.68
2023-12-28T06:30:07.874Z,10.61
2023-12-28T06:31:07.942Z,10.66
2023-12-28T06:32:07.824Z,10.66
2023-12-28T06:33:07.834Z,10.68
2023-12-28T06:34:08.407Z,10.68
2023-12-28T06:35:07.794Z,10.70
2023-12-28T06:36:07.778Z,10.70
2023-12-28T06:37:07.753Z,10.67
2023-12-28T06:38:07.754Z,10.71
2023-12-28T06:39:07.728Z,10.67
2023-12-28T06:40:07.721Z,10.66
2023-12-28T06:41:07.735Z,10.70
2023-12-28T06:42:07.721Z,10.74
2023-12-28T06:43:07.685Z,10.70
2023-12-28T06:44:07.695Z,10.66
2023-12-28T06:45:07.654Z,10.64
2023-12-28T06:46:07.642Z,10.66
2023-12-28T06:47:07.671Z,10.61
2023-12-28T06:48:07.671Z,10.63
2023-12-28T06:49:11.161Z,10.60
2023-12-28T06:50:07.648Z,10.64
2023-12-28T06:51:07.573Z,10.61
2023-12-28T06:52:07.594Z,10.60
2023-12-28T06:53:07.576Z,10.63
2023-12-28T06:54:07.637Z,10.61
2023-12-28T06:55:07.555Z,10.64
2023-12-28T06:56:07.521Z,10.61
2023-12-28T06:57:07.461Z,10.60
2023-12-28T06:58:07.488Z,10.56
2023-12-28T06:59:07.448Z,10.61
2023-12-28T07:00:07.514Z,10.56
2023-12-28T07:01:07.513Z,10.52
2023-12-28T07:02:07.390Z,10.53
2023-12-28T07:03:07.405Z,10.56
2023-12-28T07:04:07.384Z,10.51
2023-12-28T07:05:07.365Z,10.56
2023-12-28T07:06:07.333Z,10.55
2023-12-28T07:07:07.311Z,10.53
2023-12-28T07:08:07.312Z,10.52
2023-12-28T07:09:07.483Z,10.51
2023-12-28T07:10:07.292Z,10.47
2023-12-28T07:11:07.327Z,10.44
2023-12-28T07:12:07.266Z,10.40
2023-12-28T07:13:07.248Z,10.47
2023-12-28T07:14:07.260Z,10.47
2023-12-28T07:15:07.235Z,10.47
2023-12-28T07:16:07.239Z,10.47
2023-12-28T07:17:07.238Z,10.45
2023-12-28T07:18:07.292Z,10.48
2023-12-28T07:19:07.273Z,10.48
2023-12-28T07:20:07.191Z,10.51
2023-12-28T07:21:07.188Z,10.48
2023-12-28T07:22:07.127Z,10.51
2023-12-28T07:23:07.133Z,10.55
2023-12-28T07:24:07.103Z,10.53
2023-12-28T07:25:07.106Z,10.53
2023-12-28T07:26:07.075Z,10.51
2023-12-28T07:27:07.079Z,10.52
2023-12-28T07:28:07.092Z,10.45
2023-12-28T07:29:07.058Z,10.47
2023-12-28T07:30:07.069Z,10.61
2023-12-28T07:31:07.105Z,10.61
2023-12-28T07:32:07.011Z,10.53
2023-12-28T07:33:07.053Z,10.59
2023-12-28T07:34:07.293Z,10.48
2023-12-28T07:35:06.981Z,10.53
2023-12-28T07:36:06.968Z,10.51
2023-12-28T07:37:06.973Z,10.48
2023-12-28T07:38:06.931Z,10.48
2023-12-28T07:39:06.922Z,10.45
2023-12-28T07:40:06.898Z,10.51
2023-12-28T07:41:06.904Z,10.55
2023-12-28T07:42:06.898Z,10.52
2023-12-28T07:43:06.882Z,10.52
2023-12-28T07:44:06.894Z,10.48
2023-12-28T07:45:06.843Z,10.52
2023-12-28T07:46:06.892Z,10.48
2023-12-28T07:47:09.588Z,10.52
2023-12-28T07:48:07.024Z,10.59
2023-12-28T07:49:06.916Z,10.60
2023-12-28T07:50:06.797Z,10.56
2023-12-28T07:51:06.773Z,10.63
2023-12-28T07:52:06.767Z,10.61
2023-12-28T07:53:06.793Z,10.64
2023-12-28T07:54:06.772Z,10.64
2023-12-28T07:55:06.795Z,10.66
2023-12-28T07:56:07.879Z,10.64
2023-12-28T07:57:06.688Z,10.63
2023-12-28T07:58:06.733Z,10.63
2023-12-28T07:59:06.670Z,10.67
2023-12-28T08:00:06.689Z,10.68
2023-12-28T08:01:06.742Z,10.68
2023-12-28T08:02:06.635Z,10.70
2023-12-28T08:03:06.634Z,10.68
2023-12-28T08:04:06.672Z,10.70
2023-12-28T08:05:06.693Z,10.66
2023-12-28T08:06:06.606Z,10.67
2023-12-28T08:07:06.592Z,10.67
2023-12-28T08:08:06.560Z,10.71
2023-12-28T08:09:06.548Z,10.76
2023-12-28T08:10:06.544Z,10.76
2023-12-28T08:11:06.527Z,10.74
2023-12-28T08:12:06.520Z,10.73
2023-12-28T08:13:06.485Z,10.73
2023-12-28T08:14:06.476Z,10.71
2023-12-28T08:15:06.486Z,10.74
2023-12-28T08:16:06.525Z,10.74
2023-12-28T08:17:06.466Z,10.73
2023-12-28T08:18:06.576Z,10.76
2023-12-28T08:19:06.550Z,10.73
2023-12-28T08:20:06.502Z,10.70
2023-12-28T08:21:06.423Z,10.71
2023-12-28T08:22:06.378Z,10.70
2023-12-28T08:23:15.329Z,10.82
2023-12-28T08:24:06.394Z,10.79
2023-12-28T08:25:06.379Z,10.81
2023-12-28T08:26:06.324Z,10.78
2023-12-28T08:27:06.346Z,10.74
2023-12-28T08:28:06.375Z,10.74
2023-12-28T08:29:06.302Z,10.74
2023-12-28T08:30:06.337Z,10.79
2023-12-28T08:31:06.325Z,10.79
2023-12-28T08:32:06.341Z,10.76
2023-12-28T08:33:06.339Z,10.78
2023-12-28T08:34:06.404Z,10.76
2023-12-28T08:35:06.387Z,10.78
2023-12-28T08:36:06.231Z,10.78
2023-12-28T08:37:06.246Z,10.79
2023-12-28T08:38:06.185Z,10.84
2023-12-28T08:39:06.179Z,10.84
2023-12-28T08:40:06.185Z,10.84
2023-12-28T08:41:06.168Z,10.85
2023-12-28T08:42:06.148Z,10.88
2023-12-28T08:43:06.164Z,10.88
2023-12-28T08:44:06.141Z,10.86
2023-12-28T08:45:06.152Z,10.85
2023-12-28T08:46:06.139Z,10.84
2023-12-28T08:47:06.074Z,10.88
2023-12-28T08:48:06.437Z,10.91
2023-12-28T08:49:06.130Z,10.86
2023-12-28T08:50:06.229Z,10.89
2023-12-28T08:51:06.005Z,10.86
2023-12-28T08:52:06.104Z,10.89
2023-12-28T08:53:06.023Z,10.88
2023-12-28T08:54:05.974Z,10.89
2023-12-28T08:55:06.058Z,10.86
2023-12-28T08:56:05.964Z,10.94
2023-12-28T08:57:05.948Z,10.91
2023-12-28T08:58:05.985Z,10.89
2023-12-28T08:59:06.139Z,10.91
2023-12-28T09:00:05.952Z,10.91
2023-12-28T09:01:05.999Z,10.88
2023-12-28T09:02:05.942Z,10.92
2023-12-28T09:03:05.934Z,10.91
2023-12-28T09:04:05.906Z,10.91
2023-12-28T09:05:05.869Z,10.89
2023-12-28T09:06:05.890Z,10.92
2023-12-28T09:07:05.884Z,10.92
2023-12-28T09:08:05.814Z,10.92
2023-12-28T09:09:05.841Z,10.97
2023-12-28T09:10:05.799Z,10.94
2023-12-28T09:11:05.822Z,10.96
2023-12-28T09:12:05.753Z,10.96
2023-12-28T09:13:05.789Z,10.97
2023-12-28T09:14:05.740Z,10.94
2023-12-28T09:15:05.729Z,10.94
2023-12-28T09:16:07.395Z,10.92
2023-12-28T09:17:05.689Z,10.92
2023-12-28T09:18:06.084Z,10.94
2023-12-28T09:19:05.754Z,10.92
2023-12-28T09:20:05.693Z,10.89
2023-12-28T09:21:05.634Z,10.92
2023-12-28T09:22:05.644Z,10.91
2023-12-28T09:23:05.636Z,10.92
2023-12-28T09:24:05.617Z,10.89
2023-12-28T09:25:05.620Z,10.86
2023-12-28T09:26:05.620Z,10.89
2023-12-28T09:27:05.586Z,10.91
2023-12-28T09:28:05.635Z,10.89
2023-12-28T09:29:05.617Z,10.89
2023-12-28T09:30:05.574Z,10.92
2023-12-28T09:31:05.834Z,10.91
2023-12-28T09:32:05.535Z,10.92
2023-12-28T09:33:05.539Z,10.92
2023-12-28T09:34:05.511Z,10.89
2023-12-28T09:35:05.481Z,10.91
2023-12-28T09:36:05.471Z,10.88
2023-12-28T09:37:05.421Z,10.88
2023-12-28T09:38:05.437Z,10.92
2023-12-28T09:39:05.402Z,10.96
2023-12-28T09:40:05.449Z,10.94
2023-12-28T09:41:05.395Z,10.94
2023-12-28T09:42:05.384Z,10.94
2023-12-28T09:43:05.394Z,10.99
2023-12-28T09:44:05.368Z,10.99
2023-12-28T09:45:05.310Z,10.99
2023-12-28T09:46:05.312Z,10.99
2023-12-28T09:47:05.306Z,10.99
2023-12-28T09:48:05.345Z,11.03
2023-12-28T09:49:05.350Z,11.03
2023-12-28T09:50:05.274Z,11.06
2023-12-28T09:51:05.230Z,11.02
2023-12-28T09:52:05.268Z,11.03
2023-12-28T09:53:05.234Z,11.03
2023-12-28T09:54:05.212Z,11.02
2023-12-28T09:55:05.225Z,11.04
2023-12-28T09:56:05.207Z,11.03
2023-12-28T09:57:05.191Z,11.06
2023-12-28T09:58:05.230Z,11.04
2023-12-28T09:59:05.211Z,11.06
2023-12-28T10:00:05.145Z,11.06
2023-12-28T10:01:05.213Z,11.04
2023-12-28T10:02:05.102Z,11.02
2023-12-28T10:03:05.119Z,11.07
2023-12-28T10:04:05.264Z,11.06
2023-12-28T10:05:05.075Z,11.06
2023-12-28T10:06:05.113Z,11.07
2023-12-28T10:07:05.237Z,11.10
2023-12-28T10:08:05.048Z,11.06
2023-12-28T10:09:05.035Z,11.10
2023-12-28T10:10:05.084Z,11.10
2023-12-28T10:11:05.032Z,11.11
2023-12-28T10:12:04.986Z,11.09
2023-12-28T10:13:05.108Z,11.14
2023-12-28T10:14:04.946Z,11.11
2023-12-28T10:15:04.938Z,11.11
2023-12-28T10:16:04.980Z,11.11
2023-12-28T10:17:04.936Z,11.14
2023-12-28T10:18:04.952Z,11.14
2023-12-28T10:19:04.994Z,11.17
2023-12-28T10:20:04.954Z,11.15
2023-12-28T10:21:04.896Z,11.18
2023-12-28T10:22:04.907Z,11.15
2023-12-28T10:23:04.850Z,11.17
2023-12-28T10:24:04.882Z,11.17
2023-12-28T10:25:04.875Z,11.19
2023-12-28T10:26:04.803Z,11.19
2023-12-28T10:27:04.817Z,11.19
2023-12-28T10:28:04.909Z,11.22
2023-12-28T10:29:04.777Z,11.22
2023-12-28T10:30:04.782Z,11.18
2023-12-28T10:31:04.865Z,11.18
2023-12-28T10:32:04.747Z,11.19
2023-12-28T10:33:05.027Z,11.22
2023-12-28T10:34:05.193Z,11.21
2023-12-28T10:35:04.684Z,11.24
2023-12-28T10:36:04.706Z,11.19
2023-12-28T10:37:04.689Z,11.22
2023-12-28T10:38:04.775Z,11.22
2023-12-28T10:39:04.640Z,11.24
2023-12-28T10:40:04.652Z,11.24
2023-12-28T10:41:04.649Z,11.27
2023-12-28T10:42:04.587Z,11.25
2023-12-28T10:43:05.079Z,11.27
2023-12-28T10:44:08.739Z,11.27
2023-12-28T10:45:04.561Z,11.28
2023-12-28T10:46:04.578Z,11.27
2023-12-28T10:47:04.551Z,11.32
2023-12-28T10:48:04.574Z,11.25
2023-12-28T10:49:04.648Z,11.29
2023-12-28T10:50:04.801Z,11.29
2023-12-28T10:51:04.485Z,11.29
2023-12-28T10:52:04.542Z,11.32
2023-12-28T10:53:04.484Z,11.33
2023-12-28T10:54:04.449Z,11.32
2023-12-28T10:55:04.561Z,11.33
2023-12-28T10:56:04.424Z,11.36
2023-12-28T10:57:04.432Z,11.42
2023-12-28T10:58:04.478Z,11.42
2023-12-28T10:59:04.401Z,11.44
2023-12-28T11:00:04.367Z,11.44
2023-12-28T11:01:04.466Z,11.42
2023-12-28T11:02:06.382Z,11.47
2023-12-28T11:03:04.586Z,11.46
2023-12-28T11:04:04.356Z,11.44
2023-12-28T11:05:04.378Z,11.44
2023-12-28T11:06:04.300Z,11.47
2023-12-28T11:07:04.329Z,11.44
2023-12-28T11:08:04.293Z,11.46
2023-12-28T11:09:04.700Z,11.46
2023-12-28T11:10:04.452Z,11.46
2023-12-28T11:11:04.261Z,11.43
2023-12-28T11:12:04.236Z,11.49
2023-12-28T11:13:04.497Z,11.47
2023-12-28T11:14:04.252Z,11.49
2023-12-28T11:15:04.199Z,11.49
2023-12-28T11:16:04.214Z,11.47
2023-12-28T11:17:04.336Z,11.47
2023-12-28T11:18:04.235Z,11.46
2023-12-28T11:19:04.305Z,11.47
2023-12-28T11:20:04.128Z,11.52
2023-12-28T11:21:04.118Z,11.49
2023-12-28T11:22:04.172Z,11.47
2023-12-28T11:23:04.090Z,11.54
2023-12-28T11:24:04.090Z,11.55
2023-12-28T11:25:04.115Z,11.57
2023-12-28T11:26:04.056Z,11.61
2023-12-28T11:27:04.102Z,11.58
2023-12-28T11:28:04.070Z,11.64
2023-12-28T11:29:04.050Z,11.65
2023-12-28T11:30:04.085Z,11.67
2023-12-28T11:31:04.087Z,11.69
2023-12-28T11:32:03.988Z,11.73
2023-12-28T11:33:04.084Z,11.70
2023-12-28T11:34:04.061Z,11.72
2023-12-28T11:35:04.306Z,11.75
2023-12-28T11:36:04.012Z,11.69
2023-12-28T11:37:04.068Z,11.73
2023-12-28T11:38:03.919Z,11.70
2023-12-28T11:39:03.903Z,11.73
2023-12-28T11:40:04.080Z,11.76
2023-12-28T11:41:03.991Z,11.75
2023-12-28T11:42:03.839Z,11.76
2023-12-28T11:43:04.374Z,11.79
2023-12-28T11:44:03.862Z,11.76
2023-12-28T11:45:03.820Z,11.76
2023-12-28T11:46:03.967Z,11.78
2023-12-28T11:47:03.802Z,11.79
2023-12-28T11:48:04.663Z,11.75
2023-12-28T11:49:03.937Z,11.76
2023-12-28T11:50:03.760Z,11.75
2023-12-28T11:51:03.744Z,11.78
2023-12-28T11:52:03.778Z,11.78
2023-12-28T11:53:03.948Z,11.80
2023-12-28T11:54:03.699Z,11.80
2023-12-28T11:55:03.928Z,11.80
2023-12-28T11:56:03.682Z,11.80
2023-12-28T11:57:03.682Z,11.78
2023-12-28T11:58:03.762Z,11.76
2023-12-28T11:59:03.651Z,11.79
2023-12-28T12:00:03.793Z,11.82
2023-12-28T12:01:03.841Z,11.83
2023-12-28T12:02:03.669Z,11.86
2023-12-28T12:03:03.867Z,11.82
2023-12-28T12:04:03.733Z,11.83
2023-12-28T12:05:04.500Z,11.80
2023-12-28T12:06:03.625Z,11.83
2023-12-28T12:07:03.598Z,11.80
2023-12-28T12:08:03.546Z,11.85
2023-12-28T12:09:03.508Z,11.79
2023-12-28T12:10:03.654Z,11.80
2023-12-28T12:11:03.490Z,11.82
2023-12-28T12:12:03.513Z,11.80
2023-12-28T12:13:03.747Z,11.80
2023-12-28T12:14:03.457Z,11.86
2023-12-28T12:15:03.441Z,11.82
2023-12-28T12:16:03.499Z,11.79
2023-12-28T12:17:03.440Z,11.76
2023-12-28T12:18:03.487Z,11.78
2023-12-28T12:19:03.510Z,11.79
2023-12-28T12:20:03.376Z,11.82
2023-12-28T12:21:03.370Z,11.78
2023-12-28T12:22:03.409Z,11.76
2023-12-28T12:23:03.350Z,11.80
2023-12-28T12:24:03.328Z,11.83
2023-12-28T12:25:03.361Z,11.83
2023-12-28T12:26:03.307Z,11.82
2023-12-28T12:27:03.404Z,11.85
2023-12-28T12:28:03.363Z,11.86
2023-12-28T12:29:03.249Z,11.85
2023-12-28T12:30:03.247Z,11.83
2023-12-28T12:31:03.333Z,11.88
2023-12-28T12:32:03.231Z,11.86
2023-12-28T12:33:03.544Z,11.91
2023-12-28T12:34:03.391Z,11.96
2023-12-28T12:35:03.292Z,12.01
2023-12-28T12:36:03.227Z,11.99
2023-12-28T12:37:03.218Z,12.01
2023-12-28T12:38:03.162Z,11.96
2023-12-28T12:39:03.161Z,11.99
2023-12-28T12:40:03.258Z,12.05
2023-12-28T12:41:03.097Z,12.01
2023-12-28T12:42:03.090Z,11.98
2023-12-28T12:43:03.452Z,12.02
2023-12-28T12:44:03.089Z,12.01
2023-12-28T12:45:03.059Z,11.99
2023-12-28T12:46:03.147Z,12.02
2023-12-28T12:47:03.101Z,12.01
2023-12-28T12:48:03.160Z,11.99
2023-12-28T12:49:03.109Z,12.04
2023-12-28T12:50:02.991Z,11.99
2023-12-28T12:51:02.972Z,11.96
2023-12-28T12:52:05.355Z,12.01
2023-12-28T12:53:02.967Z,11.98
2023-12-28T12:54:03.037Z,12.01
2023-12-28T12:55:02.978Z,12.02
2023-12-28T12:56:02.988Z,11.99